PACV METAR and TAF weather

Enter ICAO airport designator
Station Type Date Time Source
PACV METAR 2022/06/27 07:53 UTC NOAA

PACV 270753Z 07003KT 10SM OVC019 14/11 A3027 RMK AO2 SLP249 T01390111


Station Type Date Time Source
PACV Decoded METAR 2022/06/27 07:53 UTC NOAA

MERLE K. SMITH AIRPORT, AK, United States (PACV) 60-30N 145-29W 13M
Jun 27, 2022 - 03:53 AM EDT / 2022.06.27 0753 UTC
Wind: from the ENE (070 degrees) at 3 MPH (3 KT):0
Visibility: 10 mile(s):0
Sky conditions: overcast
Temperature: 57.0 F (13.9 C)
Dew Point: 52.0 F (11.1 C)
Relative Humidity: 83%
Pressure (altimeter): 30.27 in. Hg (1025 hPa)
ob: PACV 270753Z 07003KT 10SM OVC019 14/11 A3027 RMK AO2 SLP249 T01390111
cycle: 8

Station Type Date Time Source
PACV TAF 2022/06/27 06:42 UTC NOAA

TAF PACV 270539Z 2706/2806 VRB03KT P6SM BKN018
FM272200 22007KT P6SM FEW020

Example: see airport list